createdAt,value
2023-05-31T00:01:05.515Z,37.88
2023-05-31T00:03:32.831Z,38.14
2023-05-31T00:06:00.090Z,37.90
2023-05-31T00:08:27.450Z,37.82
2023-05-31T00:10:54.622Z,37.74
2023-05-31T00:13:22.037Z,37.84
2023-05-31T00:15:49.287Z,37.98
2023-05-31T00:18:17.903Z,37.78
2023-05-31T00:20:45.209Z,37.91
2023-05-31T00:23:12.411Z,37.77
2023-05-31T00:25:39.567Z,37.69
2023-05-31T00:28:06.708Z,38.26
2023-05-31T00:30:34.150Z,38.23
2023-05-31T00:33:01.376Z,38.30
2023-05-31T00:35:29.970Z,38.21
2023-05-31T00:37:57.315Z,38.09
2023-05-31T00:40:24.575Z,37.94
2023-05-31T00:42:51.732Z,38.35
2023-05-31T00:45:18.857Z,38.03
2023-05-31T00:47:46.528Z,38.24
2023-05-31T00:50:14.127Z,38.04
2023-05-31T00:52:44.132Z,38.33
2023-05-31T00:55:11.639Z,38.09
2023-05-31T00:57:39.070Z,38.29
2023-05-31T01:03:18.438Z,38.03
2023-05-31T01:05:46.223Z,38.04
2023-05-31T01:08:14.982Z,38.00
2023-05-31T01:10:42.405Z,38.48
2023-05-31T01:13:17.421Z,37.71
2023-05-31T01:15:48.090Z,38.23
2023-05-31T01:18:21.634Z,38.39
2023-05-31T01:20:50.687Z,38.17
2023-05-31T01:23:37.511Z,38.35
2023-05-31T01:26:34.559Z,38.34
2023-05-31T01:29:06.250Z,38.53
2023-05-31T01:31:36.365Z,38.63
2023-05-31T01:34:04.768Z,38.51
2023-05-31T01:36:32.174Z,38.26
2023-05-31T01:39:00.994Z,38.24
2023-05-31T01:41:29.580Z,38.34
2023-05-31T01:43:58.556Z,38.14
2023-05-31T01:46:28.138Z,38.25
2023-05-31T01:48:56.290Z,38.02
2023-05-31T01:51:23.526Z,38.24
2023-05-31T01:53:50.820Z,38.22
2023-05-31T01:56:19.458Z,38.17
2023-05-31T01:58:47.183Z,38.35
2023-05-31T02:01:14.836Z,38.05
2023-05-31T02:03:43.875Z,38.16
2023-05-31T02:06:11.113Z,38.34
2023-05-31T02:08:38.328Z,38.21
2023-05-31T02:11:05.657Z,38.34
2023-05-31T02:13:32.799Z,38.54
2023-05-31T02:16:00.306Z,38.40
2023-05-31T02:18:27.806Z,38.68
2023-05-31T02:20:56.544Z,38.30
2023-05-31T02:23:23.929Z,38.38
2023-05-31T02:25:51.753Z,38.43
2023-05-31T02:28:19.223Z,38.16
2023-05-31T02:30:54.900Z,38.15
2023-05-31T02:33:22.149Z,38.22
2023-05-31T02:35:49.306Z,38.22
2023-05-31T02:38:19.203Z,38.10
2023-05-31T02:40:46.428Z,38.38
2023-05-31T02:43:13.569Z,38.13
2023-05-31T02:45:40.734Z,38.44
2023-05-31T02:48:07.935Z,37.99
2023-05-31T02:50:35.107Z,38.05
2023-05-31T02:53:02.259Z,38.47
2023-05-31T02:55:30.989Z,38.34
2023-05-31T02:57:58.122Z,38.34
2023-05-31T03:00:25.456Z,38.61
2023-05-31T03:02:52.972Z,38.69
2023-05-31T03:05:20.356Z,38.77
2023-05-31T03:07:47.758Z,38.22
2023-05-31T03:10:14.883Z,38.41
2023-05-31T03:12:43.527Z,38.64
2023-05-31T03:15:11.098Z,38.48
2023-05-31T03:17:38.317Z,38.77
2023-05-31T03:20:07.339Z,38.27
2023-05-31T03:22:34.525Z,38.37
2023-05-31T03:25:02.123Z,38.50
2023-05-31T03:27:29.273Z,38.43
2023-05-31T03:29:57.934Z,38.47
2023-05-31T03:32:25.083Z,38.26
2023-05-31T03:34:52.368Z,38.51
2023-05-31T03:37:19.523Z,38.69
2023-05-31T03:39:46.683Z,38.34
2023-05-31T03:42:13.812Z,38.52
2023-05-31T03:44:40.982Z,38.56
2023-05-31T03:47:09.612Z,38.81
2023-05-31T03:49:36.722Z,38.87
2023-05-31T03:52:04.295Z,38.89
2023-05-31T03:54:31.444Z,38.82
2023-05-31T03:56:58.594Z,38.41
2023-05-31T03:59:25.752Z,38.77
2023-05-31T04:01:52.902Z,38.75
2023-05-31T04:04:21.613Z,38.36
2023-05-31T04:06:48.931Z,38.55
2023-05-31T04:09:16.063Z,38.42
2023-05-31T04:11:43.192Z,39.09
2023-05-31T04:14:10.324Z,39.46
2023-05-31T04:16:37.623Z,39.11
2023-05-31T04:19:04.966Z,39.35
2023-05-31T04:21:33.588Z,39.00
2023-05-31T04:24:00.761Z,38.65
2023-05-31T04:26:27.977Z,39.20
2023-05-31T04:28:55.248Z,37.35
2023-05-31T04:31:22.934Z,37.16
2023-05-31T04:33:50.067Z,35.99
2023-05-31T04:36:17.214Z,35.60
2023-05-31T04:38:45.681Z,34.96
2023-05-31T04:41:12.864Z,35.06
2023-05-31T04:43:40.010Z,35.36
2023-05-31T04:46:08.419Z,35.00
2023-05-31T04:48:40.425Z,34.89
2023-05-31T04:51:10.068Z,34.82
2023-05-31T04:53:38.988Z,35.46
2023-05-31T04:56:11.369Z,38.21
2023-05-31T04:58:48.964Z,44.80
2023-05-31T05:01:16.908Z,37.56
2023-05-31T05:03:47.400Z,35.41
2023-05-31T05:06:19.873Z,35.05
2023-05-31T05:08:49.074Z,34.55
2023-05-31T05:11:27.051Z,35.77
2023-05-31T05:13:54.855Z,35.45
2023-05-31T05:16:24.057Z,34.98
2023-05-31T05:18:57.239Z,34.35
2023-05-31T05:21:25.773Z,35.28
2023-05-31T05:23:55.080Z,35.25
2023-05-31T05:26:39.914Z,34.73
2023-05-31T05:29:08.681Z,34.96
2023-05-31T05:31:38.214Z,34.86
2023-05-31T05:34:11.030Z,34.71
2023-05-31T05:36:39.184Z,34.80
2023-05-31T05:39:10.164Z,34.87
2023-05-31T05:41:41.563Z,35.10
2023-05-31T05:44:14.294Z,34.99
2023-05-31T05:46:46.586Z,34.83
2023-05-31T05:49:19.402Z,34.93
2023-05-31T05:51:52.632Z,34.88
2023-05-31T05:54:22.957Z,34.96
2023-05-31T05:56:54.383Z,34.76
2023-05-31T05:59:23.760Z,34.24
2023-05-31T06:01:51.974Z,34.35
2023-05-31T06:04:21.893Z,34.82
2023-05-31T06:06:52.515Z,35.39
2023-05-31T06:09:21.497Z,35.16
2023-05-31T06:11:54.344Z,35.00
2023-05-31T06:14:30.490Z,35.30
2023-05-31T06:17:02.013Z,34.74
2023-05-31T06:19:35.017Z,34.93
2023-05-31T06:22:03.690Z,35.53
2023-05-31T06:24:34.946Z,35.31
2023-05-31T06:27:06.354Z,35.02
2023-05-31T06:29:35.647Z,34.84
2023-05-31T06:32:08.509Z,34.86
2023-05-31T06:34:42.099Z,34.88
2023-05-31T06:37:15.665Z,34.95
2023-05-31T06:39:44.865Z,35.05
2023-05-31T06:42:22.485Z,34.53
2023-05-31T06:47:22.283Z,34.57
2023-05-31T06:49:49.517Z,34.51
2023-05-31T06:52:16.632Z,34.25
2023-05-31T06:54:44.504Z,34.03
2023-05-31T06:57:11.632Z,34.09
2023-05-31T06:59:40.102Z,33.99
2023-05-31T07:02:07.727Z,33.96
2023-05-31T07:04:34.910Z,33.76
2023-05-31T07:07:02.046Z,35.28
2023-05-31T07:09:29.241Z,34.94
2023-05-31T07:11:56.473Z,34.03
2023-05-31T07:14:23.596Z,34.08
2023-05-31T07:16:52.121Z,33.81
2023-05-31T07:19:19.268Z,33.93
2023-05-31T07:21:46.420Z,33.54
2023-05-31T07:24:13.627Z,33.43
2023-05-31T07:26:40.761Z,33.66
2023-05-31T07:29:08.007Z,33.73
2023-05-31T07:31:35.557Z,33.72
2023-05-31T07:34:04.050Z,33.85
2023-05-31T07:36:31.242Z,34.08
2023-05-31T07:38:58.396Z,33.76
2023-05-31T07:41:25.571Z,33.84
2023-05-31T07:43:52.776Z,34.27
2023-05-31T07:46:19.903Z,33.77
2023-05-31T07:48:47.171Z,33.84
2023-05-31T07:51:15.734Z,34.11
2023-05-31T07:53:42.938Z,34.17
2023-05-31T07:56:10.306Z,34.12
2023-05-31T07:58:37.544Z,34.12
2023-05-31T08:01:05.065Z,34.35
2023-05-31T08:03:32.461Z,34.60
2023-05-31T08:05:59.698Z,34.48
2023-05-31T08:08:28.616Z,34.63
2023-05-31T08:10:55.838Z,34.42
2023-05-31T08:13:23.022Z,34.67
2023-05-31T08:15:50.167Z,34.55
2023-05-31T08:18:17.327Z,34.47
2023-05-31T08:20:44.524Z,34.88
2023-05-31T08:23:18.072Z,34.42
2023-05-31T08:25:46.698Z,34.46
2023-05-31T08:28:13.949Z,34.80
2023-05-31T08:30:42.828Z,34.74
2023-05-31T08:33:11.250Z,34.94
2023-05-31T08:35:38.381Z,34.81
2023-05-31T08:38:05.590Z,34.83
2023-05-31T08:40:32.885Z,34.94
2023-05-31T08:43:03.937Z,34.87
2023-05-31T08:45:31.462Z,34.94
2023-05-31T08:48:03.536Z,34.77
2023-05-31T08:50:32.553Z,34.94
2023-05-31T08:53:00.336Z,34.90
2023-05-31T08:55:28.979Z,34.93
2023-05-31T08:57:57.595Z,34.90
2023-05-31T09:00:26.786Z,34.86
2023-05-31T09:02:54.222Z,34.92
2023-05-31T09:05:21.569Z,35.27
2023-05-31T09:07:48.806Z,35.17
2023-05-31T09:10:16.078Z,35.18
2023-05-31T09:12:43.656Z,35.21
2023-05-31T09:15:13.825Z,35.12
2023-05-31T09:17:44.267Z,34.96
2023-05-31T09:20:11.543Z,35.30
2023-05-31T09:22:39.057Z,35.33
2023-05-31T09:25:06.797Z,34.95
2023-05-31T09:27:37.891Z,35.24
2023-05-31T09:30:06.864Z,35.14
2023-05-31T09:32:35.301Z,35.02
2023-05-31T09:35:13.558Z,35.33
2023-05-31T09:37:44.565Z,34.92
2023-05-31T09:40:14.105Z,35.38
2023-05-31T09:42:47.972Z,35.40
2023-05-31T09:45:15.628Z,35.32
2023-05-31T09:47:43.043Z,35.47
2023-05-31T09:50:12.222Z,35.27
2023-05-31T09:52:39.441Z,35.35
2023-05-31T09:55:07.862Z,35.25
2023-05-31T09:57:36.096Z,35.29
2023-05-31T10:00:03.547Z,35.41
2023-05-31T10:02:30.978Z,35.35
2023-05-31T10:04:58.959Z,35.29
2023-05-31T10:07:28.460Z,35.65
2023-05-31T10:09:55.657Z,35.56
2023-05-31T10:12:25.664Z,35.23
2023-05-31T10:15:00.030Z,35.41
2023-05-31T10:17:29.757Z,35.22
2023-05-31T10:20:03.728Z,35.30
2023-05-31T10:22:32.972Z,35.72
2023-05-31T10:25:04.596Z,35.50
2023-05-31T10:27:38.680Z,35.89
2023-05-31T10:30:09.760Z,35.84
2023-05-31T10:32:42.287Z,35.97
2023-05-31T10:35:10.248Z,36.06
2023-05-31T10:37:40.574Z,35.83
2023-05-31T10:40:13.799Z,36.00
2023-05-31T10:42:46.162Z,36.06
2023-05-31T10:45:17.057Z,35.75
2023-05-31T10:47:50.982Z,35.77
2023-05-31T10:50:19.093Z,35.95
2023-05-31T10:52:49.237Z,35.70
2023-05-31T10:55:17.257Z,35.63
2023-05-31T10:57:44.450Z,35.79
2023-05-31T11:00:12.616Z,35.60
2023-05-31T11:02:47.940Z,35.80
2023-05-31T11:05:22.236Z,35.90
2023-05-31T11:07:51.965Z,35.94
2023-05-31T11:10:26.998Z,36.03
2023-05-31T11:12:57.762Z,36.04
2023-05-31T11:15:39.418Z,36.12
2023-05-31T11:18:09.077Z,36.06
2023-05-31T11:20:36.688Z,35.82
2023-05-31T11:23:29.474Z,35.95
2023-05-31T11:26:16.576Z,35.89
2023-05-31T11:29:00.521Z,36.15
2023-05-31T11:32:01.538Z,36.16
2023-05-31T11:34:31.688Z,35.99
2023-05-31T11:37:00.475Z,35.97
2023-05-31T11:39:29.832Z,35.66
2023-05-31T11:41:58.186Z,35.92
2023-05-31T11:44:30.110Z,35.62
2023-05-31T11:47:00.932Z,35.51
2023-05-31T11:49:28.804Z,35.41
2023-05-31T11:51:56.949Z,35.76
2023-05-31T11:54:29.704Z,35.86
2023-05-31T11:57:01.043Z,35.92
2023-05-31T11:59:28.247Z,36.06
2023-05-31T12:01:59.796Z,35.62
2023-05-31T12:04:34.320Z,35.63
2023-05-31T12:07:01.653Z,35.79
2023-05-31T12:09:30.238Z,35.48
2023-05-31T12:11:57.946Z,35.71
2023-05-31T12:14:26.157Z,35.63
2023-05-31T12:16:53.435Z,35.83
2023-05-31T12:19:20.645Z,35.79
2023-05-31T12:21:48.205Z,35.83
2023-05-31T12:24:16.828Z,35.82
2023-05-31T12:26:46.596Z,35.91
2023-05-31T12:29:14.303Z,36.05
2023-05-31T12:31:42.771Z,35.76
2023-05-31T12:34:10.964Z,35.48
2023-05-31T12:36:40.038Z,35.70
2023-05-31T12:39:12.489Z,35.92
2023-05-31T12:41:42.560Z,35.52
2023-05-31T12:44:12.739Z,35.50
2023-05-31T12:46:41.538Z,35.56
2023-05-31T12:49:14.245Z,35.82
2023-05-31T12:51:42.970Z,35.40
2023-05-31T12:54:13.738Z,35.73
2023-05-31T12:56:41.078Z,35.55
2023-05-31T12:59:08.584Z,35.62
2023-05-31T13:01:37.477Z,35.23
2023-05-31T13:04:05.249Z,35.64
2023-05-31T13:06:33.329Z,35.70
2023-05-31T13:09:00.543Z,35.51
2023-05-31T13:11:27.733Z,35.37
2023-05-31T13:13:55.172Z,35.35
2023-05-31T13:16:22.366Z,35.45
2023-05-31T13:18:50.922Z,35.73
2023-05-31T13:21:18.241Z,35.42
2023-05-31T13:23:45.375Z,35.27
2023-05-31T13:26:12.521Z,35.57
2023-05-31T13:28:39.671Z,35.42
2023-05-31T13:31:06.814Z,35.12
2023-05-31T13:33:34.442Z,35.20
2023-05-31T13:36:03.102Z,35.00
2023-05-31T13:38:30.225Z,35.25
2023-05-31T13:40:57.741Z,35.41
2023-05-31T13:43:24.981Z,35.03
2023-05-31T13:45:52.609Z,34.85
2023-05-31T13:48:20.301Z,35.07
2023-05-31T13:50:47.545Z,35.10
2023-05-31T13:53:16.165Z,35.25
2023-05-31T13:55:46.899Z,35.25
2023-05-31T13:58:23.308Z,35.22
2023-05-31T14:00:55.981Z,35.41
2023-05-31T14:03:23.520Z,35.35
2023-05-31T14:05:50.752Z,34.91
2023-05-31T14:08:19.362Z,34.98
2023-05-31T14:10:46.690Z,34.97
2023-05-31T14:13:14.177Z,35.06
2023-05-31T14:15:41.320Z,35.05
2023-05-31T14:18:09.172Z,35.14
2023-05-31T14:20:36.540Z,34.76
2023-05-31T14:23:04.419Z,34.92
2023-05-31T14:25:32.948Z,35.06
2023-05-31T14:28:00.240Z,34.67
2023-05-31T14:30:27.499Z,34.87
2023-05-31T14:32:54.885Z,34.92
2023-05-31T14:35:22.622Z,35.15
2023-05-31T14:37:55.249Z,34.99
2023-05-31T14:40:34.707Z,35.18
2023-05-31T14:43:02.078Z,34.83
2023-05-31T14:45:29.209Z,34.99
2023-05-31T14:47:56.515Z,34.69
2023-05-31T14:50:23.861Z,34.83
2023-05-31T14:52:50.984Z,34.56
2023-05-31T14:55:18.161Z,35.03
2023-05-31T14:57:46.691Z,34.86
2023-05-31T15:00:14.510Z,34.45
2023-05-31T15:02:41.760Z,34.80
2023-05-31T15:05:09.954Z,34.62
2023-05-31T15:07:37.116Z,34.78
2023-05-31T15:10:05.074Z,35.01
2023-05-31T15:12:32.195Z,35.41
2023-05-31T15:15:00.695Z,35.32
2023-05-31T15:17:28.000Z,35.11
2023-05-31T15:19:55.340Z,34.73
2023-05-31T15:22:22.476Z,34.84
2023-05-31T15:24:49.684Z,34.87
2023-05-31T15:27:16.819Z,34.74
2023-05-31T15:29:43.950Z,34.91
2023-05-31T15:32:12.473Z,34.75
2023-05-31T15:34:39.601Z,35.11
2023-05-31T15:37:06.778Z,34.95
2023-05-31T15:39:33.930Z,34.80
2023-05-31T15:42:01.051Z,34.61
2023-05-31T15:44:28.878Z,34.79
2023-05-31T15:46:56.194Z,34.61
2023-05-31T15:49:24.704Z,34.55
2023-05-31T15:51:51.815Z,34.79
2023-05-31T15:54:19.026Z,34.69
2023-05-31T15:56:46.162Z,34.67
2023-05-31T15:59:13.293Z,34.93
2023-05-31T16:01:40.525Z,34.71
2023-05-31T16:04:07.854Z,34.95
2023-05-31T16:06:36.389Z,35.01
2023-05-31T16:09:03.835Z,34.72
2023-05-31T16:11:31.023Z,34.94
2023-05-31T16:13:58.154Z,34.90
2023-05-31T16:16:25.507Z,34.98
2023-05-31T16:18:52.943Z,35.02
2023-05-31T16:21:20.143Z,34.92
2023-05-31T16:23:48.664Z,35.33
2023-05-31T16:26:15.777Z,35.12
2023-05-31T16:28:42.942Z,34.85
2023-05-31T16:31:13.428Z,34.89
2023-05-31T16:33:42.066Z,34.85
2023-05-31T16:36:09.725Z,35.02
2023-05-31T16:38:36.970Z,34.94
2023-05-31T16:41:05.449Z,34.85
2023-05-31T16:43:32.593Z,35.09
2023-05-31T16:45:59.832Z,35.87
2023-05-31T16:48:27.308Z,35.66
2023-05-31T16:50:54.678Z,36.02
2023-05-31T16:53:21.887Z,35.88
2023-05-31T16:55:49.478Z,36.27
2023-05-31T16:58:17.997Z,35.99
2023-05-31T17:00:45.158Z,36.30
2023-05-31T17:03:12.556Z,36.03
2023-05-31T17:05:41.170Z,36.23
2023-05-31T17:08:08.403Z,36.10
2023-05-31T17:10:35.783Z,36.14
2023-05-31T17:13:02.928Z,36.20
2023-05-31T17:15:31.455Z,36.08
2023-05-31T17:17:59.202Z,36.30
2023-05-31T17:20:26.478Z,35.91
2023-05-31T17:22:53.632Z,36.01
2023-05-31T17:25:20.907Z,35.90
2023-05-31T17:27:48.068Z,35.92
2023-05-31T17:30:15.631Z,36.01
2023-05-31T17:32:44.205Z,36.06
2023-05-31T17:35:11.359Z,36.02
2023-05-31T17:37:38.541Z,36.20
2023-05-31T17:40:07.244Z,36.30
2023-05-31T17:42:34.386Z,36.40
2023-05-31T17:45:01.530Z,36.39
2023-05-31T17:47:29.161Z,36.28
2023-05-31T17:49:57.855Z,36.17
2023-05-31T17:52:25.067Z,36.54
2023-05-31T17:54:52.192Z,36.55
2023-05-31T17:57:19.312Z,36.61
2023-05-31T17:59:46.460Z,36.39
2023-05-31T18:02:13.647Z,36.31
2023-05-31T18:04:40.830Z,36.11
2023-05-31T18:07:09.319Z,36.33
2023-05-31T18:09:36.463Z,36.42
2023-05-31T18:12:04.061Z,36.52
2023-05-31T18:14:31.271Z,36.48
2023-05-31T18:16:58.541Z,36.03
2023-05-31T18:19:25.655Z,36.50
2023-05-31T18:21:52.898Z,36.13
2023-05-31T18:24:21.504Z,36.14
2023-05-31T18:26:50.835Z,36.32
2023-05-31T18:29:18.246Z,36.32
2023-05-31T18:31:45.403Z,36.57
2023-05-31T18:34:12.566Z,36.55
2023-05-31T18:36:39.694Z,36.59
2023-05-31T18:39:06.801Z,36.38
2023-05-31T18:41:35.275Z,36.57
2023-05-31T18:44:02.766Z,36.23
2023-05-31T18:46:29.951Z,36.21
2023-05-31T18:48:57.207Z,36.07
2023-05-31T18:51:24.383Z,35.97
2023-05-31T18:53:51.911Z,36.13
2023-05-31T18:56:19.025Z,36.12
2023-05-31T18:58:47.556Z,36.70
2023-05-31T19:01:14.775Z,36.93
2023-05-31T19:03:42.061Z,36.78
2023-05-31T19:06:09.383Z,37.28
2023-05-31T19:08:36.561Z,36.57
2023-05-31T19:11:03.833Z,36.89
2023-05-31T19:13:30.997Z,36.44
2023-05-31T19:15:59.872Z,36.67
2023-05-31T19:18:27.173Z,36.91
2023-05-31T19:20:54.360Z,36.88
2023-05-31T19:23:21.518Z,36.93
2023-05-31T19:25:48.669Z,36.82
2023-05-31T19:28:15.957Z,36.90
2023-05-31T19:30:43.498Z,36.58
2023-05-31T19:33:12.157Z,36.49
2023-05-31T19:35:39.647Z,36.31
2023-05-31T19:38:06.925Z,36.70
2023-05-31T19:40:34.147Z,36.38
2023-05-31T19:43:01.316Z,36.51
2023-05-31T19:45:28.495Z,36.70
2023-05-31T19:47:55.647Z,36.62
2023-05-31T19:50:24.219Z,36.38
2023-05-31T19:52:51.321Z,36.71
2023-05-31T19:55:18.453Z,36.50
2023-05-31T19:57:45.790Z,36.60
2023-05-31T20:00:13.373Z,36.64
2023-05-31T20:02:40.504Z,36.61
2023-05-31T20:05:08.324Z,36.93
2023-05-31T20:07:36.824Z,36.91
2023-05-31T20:10:04.416Z,36.46
2023-05-31T20:12:31.592Z,36.42
2023-05-31T20:14:59.949Z,36.74
2023-05-31T20:17:29.385Z,36.89
2023-05-31T20:19:56.640Z,36.63
2023-05-31T20:22:23.753Z,37.00
2023-05-31T20:24:52.249Z,36.61
2023-05-31T20:27:19.413Z,36.91
2023-05-31T20:29:46.550Z,36.90
2023-05-31T20:32:13.726Z,36.65
2023-05-31T20:34:41.025Z,36.59
2023-05-31T20:37:08.247Z,37.01
2023-05-31T20:39:35.360Z,36.74
2023-05-31T20:42:04.277Z,36.65
2023-05-31T20:44:33.295Z,36.87
2023-05-31T20:47:00.430Z,36.83
2023-05-31T20:49:27.636Z,36.87
2023-05-31T20:51:54.777Z,36.99
2023-05-31T20:54:21.902Z,37.16
2023-05-31T20:56:49.408Z,37.21
2023-05-31T20:59:17.945Z,37.10
2023-05-31T21:01:45.120Z,37.26
2023-05-31T21:04:12.279Z,37.23
2023-05-31T21:06:39.613Z,37.32
2023-05-31T21:09:06.731Z,37.24
2023-05-31T21:11:34.315Z,37.32
2023-05-31T21:14:01.428Z,37.32
2023-05-31T21:16:29.944Z,37.20
2023-05-31T21:18:57.110Z,36.93
2023-05-31T21:21:24.407Z,37.14
2023-05-31T21:23:51.543Z,37.07
2023-05-31T21:26:18.736Z,37.10
2023-05-31T21:28:45.864Z,37.55
2023-05-31T21:31:13.024Z,37.40
2023-05-31T21:33:41.549Z,37.53
2023-05-31T21:36:08.978Z,37.31
2023-05-31T21:38:36.106Z,37.70
2023-05-31T21:41:05.222Z,37.66
2023-05-31T21:43:34.545Z,37.43
2023-05-31T21:46:01.658Z,37.44
2023-05-31T21:48:28.808Z,37.59
2023-05-31T21:50:57.280Z,37.51
2023-05-31T21:53:24.416Z,37.60
2023-05-31T21:55:51.549Z,37.53
2023-05-31T21:58:18.659Z,37.81
2023-05-31T22:00:45.832Z,37.96
2023-05-31T22:03:13.009Z,37.84
2023-05-31T22:05:40.121Z,37.76
2023-05-31T22:08:08.595Z,37.39
2023-05-31T22:10:35.740Z,37.58
2023-05-31T22:13:02.870Z,37.87
2023-05-31T22:15:30.043Z,37.93
2023-05-31T22:17:57.442Z,37.74
2023-05-31T22:20:24.621Z,37.90
2023-05-31T22:22:51.746Z,38.14
2023-05-31T22:25:20.365Z,38.22
2023-05-31T22:27:47.531Z,38.31
2023-05-31T22:30:15.053Z,37.87
2023-05-31T22:32:42.259Z,37.81
2023-05-31T22:35:10.101Z,38.19
2023-05-31T22:37:37.202Z,38.30
2023-05-31T22:40:05.122Z,37.88
2023-05-31T22:42:33.617Z,37.93
2023-05-31T22:45:00.733Z,37.92
2023-05-31T22:47:28.089Z,38.20
2023-05-31T22:49:55.219Z,38.17
2023-05-31T22:52:22.349Z,38.06
2023-05-31T22:54:49.475Z,38.14
2023-05-31T22:57:16.649Z,38.28
2023-05-31T22:59:45.100Z,37.99
2023-05-31T23:02:12.272Z,38.30
2023-05-31T23:04:39.424Z,38.10
2023-05-31T23:07:06.680Z,38.09
2023-05-31T23:09:33.849Z,38.30
2023-05-31T23:12:01.017Z,38.47
2023-05-31T23:14:28.348Z,38.54
2023-05-31T23:16:58.882Z,38.31
2023-05-31T23:19:26.070Z,38.65
2023-05-31T23:21:53.258Z,38.54
2023-05-31T23:24:20.425Z,38.40
2023-05-31T23:26:47.552Z,38.34
2023-05-31T23:29:14.676Z,38.50
2023-05-31T23:31:41.878Z,38.56
2023-05-31T23:34:10.379Z,38.58
2023-05-31T23:36:37.490Z,38.20
2023-05-31T23:39:04.629Z,38.21
2023-05-31T23:41:31.756Z,38.56
2023-05-31T23:43:58.944Z,38.23
2023-05-31T23:46:26.219Z,38.34
2023-05-31T23:48:53.420Z,38.53
2023-05-31T23:51:22.002Z,38.31
2023-05-31T23:53:49.186Z,38.60
2023-05-31T23:56:16.306Z,38.80
2023-05-31T23:58:43.443Z,38.66
